Time;durP1;ratioP1;P1;durP2;ratioP2;P2;SDS_P1;SDS_P2;PMS_P1;PMS_P2;Temp;Humidity;BMP_temperature;BMP_pressure;BME280_temperature;BME280_humidity;BME280_pressure;Samples;Min_cycle;Max_cycle;Signal;HPM_P1;HPM_P2
2021/03/26 00:01:44;;;;;;;28.38;16.48;;;10.30;99.90;;;;;;4141110;28;20045;-68
2021/03/26 00:03:47;;;;;;;26.00;16.63;;;10.30;99.90;;;;;;4124539;28;20498;-68
2021/03/26 00:05:51;;;;;;;24.90;16.08;;;10.20;99.90;;;;;;4105937;28;20453;-68
2021/03/26 00:07:54;;;;;;;28.02;16.92;;;10.20;99.90;;;;;;4141426;28;20447;-68
2021/03/26 00:09:56;;;;;;;23.10;15.57;;;10.20;99.90;;;;;;4124624;28;20149;-68
2021/03/26 00:12:03;;;;;;;26.20;15.77;;;10.10;99.90;;;;;;4119906;28;20988;-68
2021/03/26 00:14:04;;;;;;;23.42;14.38;;;10.20;99.90;;;;;;4125330;28;20038;-68
2021/03/26 00:16:05;;;;;;;24.55;15.77;;;10.20;99.90;;;;;;4122889;28;20535;-68
2021/03/26 00:18:06;;;;;;;24.45;16.00;;;10.10;99.90;;;;;;4117111;28;20114;-68
2021/03/26 00:20:08;;;;;;;25.00;16.35;;;10.10;99.90;;;;;;4120566;28;20042;-68
2021/03/26 00:22:08;;;;;;;24.70;15.90;;;10.10;99.90;;;;;;4122770;28;20070;-68
2021/03/26 00:24:09;;;;;;;24.20;15.40;;;10.10;99.90;;;;;;4113026;28;20023;-68
2021/03/26 00:26:11;;;;;;;25.95;15.70;;;10.10;99.90;;;;;;4125512;28;20038;-68
2021/03/26 00:28:11;;;;;;;24.65;15.48;;;10.10;99.90;;;;;;4124304;28;20026;-68
2021/03/26 00:30:14;;;;;;;24.75;14.93;;;10.10;99.90;;;;;;4096078;28;20443;-67
2021/03/26 00:32:19;;;;;;;25.10;16.85;;;10.10;99.90;;;;;;4125403;28;20038;-68
2021/03/26 00:34:20;;;;;;;23.00;14.75;;;10.00;99.90;;;;;;4108136;28;20600;-68
2021/03/26 00:36:21;;;;;;;22.52;15.05;;;10.10;99.90;;;;;;4123730;28;20046;-68
2021/03/26 00:38:23;;;;;;;22.65;15.00;;;10.10;99.90;;;;;;4105892;28;21254;-68
2021/03/26 00:40:24;;;;;;;24.67;15.02;;;10.10;99.90;;;;;;4139001;28;20042;-68
2021/03/26 00:42:25;;;;;;;23.77;15.38;;;10.10;99.90;;;;;;4120088;28;20059;-68
2021/03/26 00:44:25;;;;;;;25.90;15.43;;;10.10;99.90;;;;;;4103168;28;20035;-68
2021/03/26 01:04:07;;;;;;;24.30;16.00;;;9.90;99.90;;;;;;4123562;28;20101;-68
2021/03/26 01:06:09;;;;;;;28.77;17.48;;;9.90;99.90;;;;;;4144886;28;20489;-68
2021/03/26 01:08:10;;;;;;;27.52;17.27;;;9.90;99.90;;;;;;4143753;28;20402;-68
2021/03/26 01:10:14;;;;;;;29.30;15.98;;;9.90;99.90;;;;;;4139434;28;20041;-68
2021/03/26 01:12:15;;;;;;;28.50;17.85;;;9.90;99.90;;;;;;4142538;28;20089;-68
2021/03/26 01:14:19;;;;;;;26.58;16.73;;;9.90;99.90;;;;;;4132094;28;20030;-68
2021/03/26 01:16:21;;;;;;;28.92;18.42;;;9.90;99.90;;;;;;4138046;28;20034;-68
2021/03/26 01:18:32;;;;;;;28.10;17.50;;;9.80;99.90;;;;;;4150062;28;20113;-68
2021/03/26 01:20:37;;;;;;;26.10;16.83;;;9.80;99.90;;;;;;4153487;28;20041;-68
2021/03/26 01:22:37;;;;;;;29.70;17.52;;;9.80;99.90;;;;;;4153328;28;20037;-68
2021/03/26 01:24:38;;;;;;;29.23;17.42;;;9.80;99.90;;;;;;4144922;28;20113;-68
2021/03/26 01:26:39;;;;;;;30.58;19.17;;;9.70;99.90;;;;;;4144889;28;20031;-68
2021/03/26 01:28:39;;;;;;;30.13;17.15;;;9.70;99.90;;;;;;4143665;28;20042;-68
2021/03/26 01:30:40;;;;;;;34.20;18.20;;;9.70;99.90;;;;;;4144593;28;20065;-68
2021/03/26 01:32:41;;;;;;;28.27;17.98;;;9.70;99.90;;;;;;4145259;28;20101;-68
2021/03/26 01:34:42;;;;;;;32.00;18.92;;;9.60;99.90;;;;;;4107257;28;20035;-68
2021/03/26 01:36:43;;;;;;;29.83;17.45;;;9.60;99.90;;;;;;4143000;28;20065;-68
2021/03/26 01:38:43;;;;;;;28.85;18.33;;;9.60;99.90;;;;;;4144646;28;20140;-68
2021/03/26 01:40:47;;;;;;;29.75;18.88;;;9.60;99.90;;;;;;4145234;28;20544;-68
2021/03/26 01:42:48;;;;;;;26.88;17.60;;;9.60;99.90;;;;;;4130706;28;20042;-68
2021/03/26 01:44:49;;;;;;;25.88;17.17;;;9.60;99.90;;;;;;4141924;28;20096;-68
2021/03/26 01:46:50;;;;;;;26.50;16.52;;;9.60;99.90;;;;;;4127193;28;20110;-68
2021/03/26 01:48:58;;;;;;;29.00;17.85;;;9.60;99.90;;;;;;4138852;28;20089;-68
2021/03/26 01:51:01;;;;;;;26.08;15.95;;;9.60;99.90;;;;;;4127026;28;20069;-68
2021/03/26 01:53:03;;;;;;;30.25;18.23;;;9.60;99.90;;;;;;4122970;28;20528;-68
2021/03/26 01:55:05;;;;;;;26.63;16.95;;;9.60;99.90;;;;;;4135628;28;20192;-68
2021/03/26 01:57:07;;;;;;;;;;;9.60;99.90;;;;;;4134901;28;20026;-68
2021/03/26 01:59:08;;;;;;;29.50;17.30;;;9.60;99.90;;;;;;4126211;28;19960;-68
2021/03/26 02:01:14;;;;;;;25.90;17.25;;;9.60;99.90;;;;;;4144870;28;20054;-68
2021/03/26 02:03:31;;;;;;;26.85;17.08;;;9.60;99.90;;;;;;4141627;28;20050;-68
2021/03/26 02:05:32;;;;;;;28.67;18.23;;;9.50;99.90;;;;;;4141355;28;20050;-68
2021/03/26 02:07:33;;;;;;;31.88;18.80;;;9.50;99.90;;;;;;4144203;28;20037;-68
2021/03/26 02:09:37;;;;;;;28.50;17.63;;;9.50;99.90;;;;;;4131461;28;20026;-68
2021/03/26 02:12:00;;;;;;;31.77;19.88;;;9.50;99.90;;;;;;4133916;28;20104;-68
2021/03/26 02:14:06;;;;;;;28.23;17.27;;;9.50;99.90;;;;;;4134014;28;20034;-68
2021/03/26 02:16:08;;;;;;;29.95;17.85;;;9.50;99.90;;;;;;4137233;28;20603;-68
2021/03/26 02:18:14;;;;;;;28.73;17.77;;;9.50;99.90;;;;;;4144633;28;20041;-68
2021/03/26 02:20:30;;;;;;;29.95;19.42;;;9.50;99.90;;;;;;4141503;28;20081;-68
2021/03/26 02:22:33;;;;;;;27.77;17.92;;;9.50;99.90;;;;;;4136314;28;20034;-68
2021/03/26 02:24:33;;;;;;;27.70;17.63;;;9.50;99.90;;;;;;4143504;28;20038;-68
2021/03/26 02:26:39;;;;;;;29.02;18.55;;;9.50;99.90;;;;;;4142049;28;20041;-68
2021/03/26 02:28:40;;;;;;;31.00;18.13;;;9.40;99.90;;;;;;4144708;28;20080;-68
2021/03/26 02:30:45;;;;;;;32.55;18.92;;;9.40;99.90;;;;;;4118975;28;20677;-68
2021/03/26 02:32:47;;;;;;;31.20;19.02;;;9.40;99.90;;;;;;4137927;28;20614;-68
2021/03/26 02:35:16;;;;;;;34.83;20.80;;;9.40;99.90;;;;;;4127022;28;20038;-68
2021/03/26 02:37:16;;;;;;;33.63;20.98;;;9.40;99.90;;;;;;4121538;28;20057;-68
2021/03/26 02:39:31;;;;;;;32.28;20.38;;;9.40;99.90;;;;;;4143379;28;20034;-68
2021/03/26 02:41:39;;;;;;;30.33;19.73;;;9.30;99.90;;;;;;4135513;28;20383;-67
2021/03/26 02:44:15;;;;;;;34.30;21.38;;;9.40;99.90;;;;;;4123048;28;20053;-68
2021/03/26 02:46:27;;;;;;;32.15;20.67;;;9.30;99.90;;;;;;4135420;28;20038;-68
2021/03/26 02:48:44;;;;;;;34.53;20.50;;;9.30;99.90;;;;;;4124352;28;20110;-68
2021/03/26 02:51:07;;;;;;;33.00;20.63;;;9.30;99.90;;;;;;4118062;28;20426;-68
2021/03/26 02:53:22;;;;;;;34.70;21.02;;;9.40;99.90;;;;;;4126661;28;20034;-68
2021/03/26 02:55:41;;;;;;;34.65;20.58;;;9.40;99.90;;;;;;4139559;28;20056;-68
2021/03/26 02:58:03;;;;;;;32.90;19.33;;;9.40;99.90;;;;;;4143235;28;20037;-68
2021/03/26 03:00:27;;;;;;;34.00;20.77;;;9.40;99.90;;;;;;4139451;28;20034;-68
2021/03/26 03:02:29;;;;;;;34.25;20.77;;;9.40;99.90;;;;;;4138820;28;20042;-68
2021/03/26 03:04:33;;;;;;;32.67;20.58;;;9.40;99.90;;;;;;4124777;28;20500;-68
2021/03/26 03:06:52;;;;;;;34.95;21.33;;;9.30;99.90;;;;;;4135951;28;20129;-68
2021/03/26 03:08:55;;;;;;;35.10;22.15;;;9.40;99.90;;;;;;4127731;28;20034;-68
2021/03/26 03:11:23;;;;;;;34.40;21.30;;;9.40;99.90;;;;;;4119762;28;20037;-68
2021/03/26 03:13:40;;;;;;;31.30;20.55;;;9.40;99.90;;;;;;4118139;28;20030;-68
2021/03/26 03:15:54;;;;;;;36.60;21.52;;;9.30;99.90;;;;;;4107339;28;20067;-68
2021/03/26 03:17:58;;;;;;;33.80;21.20;;;9.30;99.90;;;;;;4136666;28;20057;-68
2021/03/26 03:20:35;;;;;;;35.55;22.38;;;9.30;99.90;;;;;;4134973;28;20034;-68
2021/03/26 03:22:50;;;;;;;33.67;20.10;;;9.30;99.90;;;;;;4140153;28;20046;-68
2021/03/26 03:24:55;;;;;;;33.95;20.75;;;9.30;99.90;;;;;;4143601;28;20041;-68
2021/03/26 03:27:07;;;;;;;33.92;21.77;;;9.30;99.90;;;;;;4110708;28;20065;-68
2021/03/26 03:29:20;;;;;;;34.75;21.85;;;9.30;99.90;;;;;;4130027;28;20038;-68
2021/03/26 03:31:36;;;;;;;32.40;20.75;;;9.30;99.90;;;;;;4126086;28;20034;-68
2021/03/26 03:34:15;;;;;;;36.47;22.02;;;9.30;99.90;;;;;;4122305;28;20042;-68
2021/03/26 03:36:22;;;;;;;34.83;21.65;;;9.30;99.90;;;;;;4100714;28;20118;-68
2021/03/26 03:38:22;;;;;;;35.78;21.60;;;9.20;99.90;;;;;;4139447;28;20037;-68
2021/03/26 03:40:31;;;;;;;36.20;22.45;;;9.20;99.90;;;;;;4142979;28;20022;-68
2021/03/26 03:42:49;;;;;;;36.30;22.77;;;9.20;99.90;;;;;;4140083;28;20042;-68
2021/03/26 03:44:56;;;;;;;36.25;21.50;;;9.20;99.90;;;;;;4105567;28;20042;-68
2021/03/26 03:47:19;;;;;;;36.53;21.75;;;9.20;99.90;;;;;;4135522;28;20034;-68
2021/03/26 03:49:30;;;;;;;36.70;21.55;;;9.20;99.90;;;;;;4142693;28;20482;-68
2021/03/26 03:51:49;;;;;;;35.17;22.38;;;9.10;99.90;;;;;;4139320;28;20061;-68
2021/03/26 03:54:27;;;;;;;34.60;22.20;;;9.10;99.90;;;;;;4125160;28;20072;-68
2021/03/26 03:56:50;;;;;;;36.55;23.20;;;9.10;99.90;;;;;;4135134;28;20483;-68
2021/03/26 03:59:02;;;;;;;35.70;22.17;;;9.00;99.90;;;;;;4142189;28;20520;-68
2021/03/26 04:01:20;;;;;;;38.10;22.73;;;9.00;99.90;;;;;;4138265;28;20046;-68
2021/03/26 04:03:43;;;;;;;36.38;23.30;;;9.00;99.90;;;;;;4142266;28;20412;-68
2021/03/26 04:05:52;;;;;;;36.50;21.35;;;9.00;99.90;;;;;;4139449;28;20045;-68
2021/03/26 04:08:11;;;;;;;37.97;23.30;;;8.90;99.90;;;;;;4135346;28;20124;-68
2021/03/26 04:10:16;;;;;;;34.72;21.88;;;9.00;99.90;;;;;;4135294;28;20042;-68
2021/03/26 04:12:21;;;;;;;37.72;22.38;;;8.90;99.90;;;;;;4117385;28;20537;-68
2021/03/26 04:14:41;;;;;;;41.78;24.73;;;8.90;99.90;;;;;;4142333;28;20037;-68
2021/03/26 04:16:46;;;;;;;35.92;21.98;;;9.00;99.90;;;;;;4125178;28;20491;-68
2021/03/26 04:19:05;;;;;;;38.75;23.05;;;8.90;99.90;;;;;;4141813;28;20069;-68
2021/03/26 04:21:24;;;;;;;39.60;22.92;;;8.90;99.90;;;;;;4130141;28;20039;-68
2021/03/26 04:23:37;;;;;;;39.38;24.75;;;8.90;99.90;;;;;;4098509;28;20152;-68
2021/03/26 04:25:42;;;;;;;39.28;24.05;;;8.90;99.90;;;;;;4111981;28;20031;-68
2021/03/26 04:27:46;;;;;;;42.97;24.65;;;8.90;99.90;;;;;;4123883;28;20031;-68
2021/03/26 04:30:08;;;;;;;45.20;25.17;;;8.90;99.90;;;;;;4142435;28;20044;-68
2021/03/26 04:32:12;;;;;;;42.47;25.33;;;8.90;99.90;;;;;;4141694;28;20041;-68
2021/03/26 04:34:14;;;;;;;40.03;24.73;;;8.80;99.90;;;;;;4142616;28;20494;-68
2021/03/26 04:36:22;;;;;;;38.42;23.85;;;8.80;99.90;;;;;;4142731;28;20030;-68
2021/03/26 04:38:27;;;;;;;40.63;24.35;;;8.80;99.90;;;;;;4141245;28;20463;-68
2021/03/26 04:40:32;;;;;;;41.58;25.70;;;8.80;99.90;;;;;;4127130;28;20038;-68
2021/03/26 04:43:10;;;;;;;38.92;24.35;;;8.80;99.90;;;;;;4119642;28;20033;-68
2021/03/26 04:45:26;;;;;;;35.47;22.65;;;8.70;99.90;;;;;;4123352;28;20136;-68
2021/03/26 04:47:38;;;;;;;42.28;24.10;;;8.70;99.90;;;;;;4138948;28;20036;-68
2021/03/26 04:49:48;;;;;;;42.83;24.25;;;8.80;99.90;;;;;;4132982;28;20478;-68
2021/03/26 04:52:04;;;;;;;40.72;24.08;;;8.80;99.90;;;;;;4140923;28;20049;-68
2021/03/26 04:54:34;;;;;;;36.13;22.73;;;8.70;99.90;;;;;;4141972;28;20634;-68
2021/03/26 04:56:42;;;;;;;37.15;23.27;;;8.80;99.90;;;;;;4147555;28;20104;-68
2021/03/26 04:58:49;;;;;;;43.03;24.05;;;8.70;99.90;;;;;;4130205;28;20618;-68
2021/03/26 05:00:54;;;;;;;42.83;25.10;;;8.70;99.90;;;;;;4124766;28;20031;-68
2021/03/26 05:03:04;;;;;;;41.90;24.88;;;8.70;99.90;;;;;;4116627;28;20058;-68
2021/03/26 05:05:06;;;;;;;45.67;25.27;;;8.70;99.90;;;;;;4157042;28;20033;-68
2021/03/26 05:07:18;;;;;;;36.70;23.38;;;8.60;99.90;;;;;;4153798;28;20123;-68
2021/03/26 05:09:27;;;;;;;39.88;24.48;;;8.60;99.90;;;;;;4136249;28;20041;-68
2021/03/26 05:11:33;;;;;;;43.05;24.27;;;8.60;99.90;;;;;;4141592;28;20042;-68
2021/03/26 05:13:59;;;;;;;42.83;25.13;;;8.50;99.90;;;;;;4137163;28;20462;-68
2021/03/26 05:16:06;;;;;;;44.35;24.55;;;8.40;99.90;;;;;;4123906;28;20165;-68
2021/03/26 05:18:29;;;;;;;43.42;26.55;;;8.40;99.90;;;;;;4119359;28;20108;-68
2021/03/26 05:21:02;;;;;;;45.53;27.05;;;8.30;99.90;;;;;;4124570;28;20038;-68
2021/03/26 05:23:20;;;;;;;43.75;25.33;;;8.30;99.90;;;;;;4125494;28;20112;-68
2021/03/26 05:25:46;;;;;;;44.35;26.25;;;8.20;99.90;;;;;;4141976;28;20034;-68
2021/03/26 05:27:47;;;;;;;46.95;27.48;;;8.20;99.90;;;;;;4125438;28;20052;-68
2021/03/26 05:29:48;;;;;;;48.63;28.02;;;8.10;99.90;;;;;;4141472;28;20036;-68
2021/03/26 05:32:11;;;;;;;40.25;25.02;;;8.10;99.90;;;;;;4140167;28;20063;-68
2021/03/26 05:34:22;;;;;;;42.05;25.00;;;8.10;99.90;;;;;;4145773;28;20749;-68
2021/03/26 05:36:39;;;;;;;41.53;25.02;;;8.00;99.90;;;;;;4144469;28;20045;-68
2021/03/26 05:38:40;;;;;;;36.65;23.45;;;8.00;99.90;;;;;;4141523;28;20063;-68
2021/03/26 05:40:47;;;;;;;41.50;25.75;;;8.00;99.90;;;;;;4140771;28;20046;-68
2021/03/26 05:42:57;;;;;;;40.95;24.98;;;8.00;99.90;;;;;;4134968;28;20443;-68
2021/03/26 05:45:13;;;;;;;47.35;27.55;;;8.00;99.90;;;;;;4120403;28;20035;-68
2021/03/26 05:47:31;;;;;;;39.60;24.58;;;8.00;99.90;;;;;;4135971;28;20038;-68
2021/03/26 05:49:43;;;;;;;45.35;26.08;;;8.00;99.90;;;;;;4136861;28;20382;-68
2021/03/26 05:52:10;;;;;;;45.78;25.95;;;8.00;99.90;;;;;;4137396;28;20038;-68
2021/03/26 05:54:23;;;;;;;38.75;22.63;;;7.90;99.90;;;;;;4135899;28;20042;-68
2021/03/26 05:56:59;;;;;;;42.85;23.55;;;7.90;99.90;;;;;;4134142;28;20117;-68
2021/03/26 05:59:31;;;;;;;43.70;24.38;;;7.90;99.90;;;;;;4136668;28;20046;-68
2021/03/26 06:01:44;;;;;;;37.28;22.90;;;7.90;99.90;;;;;;4120780;28;20034;-68
2021/03/26 06:04:08;;;;;;;41.10;24.08;;;7.90;99.90;;;;;;4108883;28;20121;-68
2021/03/26 06:06:26;;;;;;;39.22;22.80;;;7.90;99.90;;;;;;4106695;28;20030;-68
2021/03/26 06:09:02;;;;;;;40.72;23.38;;;7.90;99.90;;;;;;4120504;28;20418;-68
2021/03/26 06:11:38;;;;;;;37.45;22.23;;;7.90;99.90;;;;;;4118954;28;20058;-68
2021/03/26 06:14:07;;;;;;;38.53;23.13;;;7.90;99.90;;;;;;4088132;28;20034;-68
2021/03/26 06:16:19;;;;;;;41.30;23.92;;;8.00;99.90;;;;;;4135793;28;20553;-68
2021/03/26 06:18:42;;;;;;;34.42;21.08;;;8.00;99.90;;;;;;4137261;28;20037;-68
2021/03/26 06:20:57;;;;;;;34.75;22.23;;;8.00;99.90;;;;;;4105669;28;20031;-68
2021/03/26 06:23:38;;;;;;;34.50;21.02;;;8.10;99.90;;;;;;4126644;28;20496;-68
2021/03/26 06:26:20;;;;;;;40.58;23.65;;;8.10;99.90;;;;;;4126240;28;20030;-68
2021/03/26 06:28:41;;;;;;;37.13;22.95;;;8.10;99.90;;;;;;4127070;28;20049;-68
2021/03/26 06:30:45;;;;;;;43.47;25.08;;;8.10;99.90;;;;;;4138391;28;20116;-68
2021/03/26 06:33:24;;;;;;;42.85;24.60;;;8.10;99.90;;;;;;4139428;28;20034;-68
2021/03/26 06:35:34;;;;;;;43.45;24.70;;;8.10;99.90;;;;;;4143877;28;20405;-68
2021/03/26 06:38:22;;;;;;;42.92;23.52;;;8.10;99.90;;;;;;4106281;28;20030;-68
2021/03/26 06:40:47;;;;;;;35.58;22.63;;;8.10;99.90;;;;;;4137453;28;20037;-68
2021/03/26 06:42:47;;;;;;;45.05;24.77;;;8.20;99.90;;;;;;4141734;28;20073;-68
2021/03/26 06:45:13;;;;;;;41.58;24.52;;;8.20;99.90;;;;;;4143459;28;20042;-68
2021/03/26 06:47:22;;;;;;;38.42;22.88;;;8.20;99.90;;;;;;4105172;28;20085;-68
2021/03/26 06:49:55;;;;;;;37.63;23.25;;;8.30;99.90;;;;;;4143080;28;20379;-68
2021/03/26 06:52:15;;;;;;;38.55;23.20;;;8.30;99.90;;;;;;4141729;28;20049;-68
2021/03/26 06:54:38;;;;;;;41.70;24.35;;;8.50;99.90;;;;;;4137823;28;20045;-68
2021/03/26 06:57:04;;;;;;;45.30;26.25;;;8.50;99.90;;;;;;4140748;28;20692;-68
2021/03/26 06:59:13;;;;;;;40.00;24.13;;;8.50;99.90;;;;;;4124934;28;20038;-68
2021/03/26 07:01:30;;;;;;;38.60;22.48;;;8.60;99.90;;;;;;4124374;28;20557;-68
2021/03/26 07:03:49;;;;;;;37.53;23.27;;;8.60;99.90;;;;;;4140433;28;20042;-69
2021/03/26 07:06:17;;;;;;;38.72;23.73;;;8.70;99.90;;;;;;4140664;28;20046;-69
2021/03/26 07:08:40;;;;;;;40.08;24.73;;;8.80;99.90;;;;;;4135496;28;20034;-70
2021/03/26 07:10:53;;;;;;;38.72;24.52;;;8.80;99.90;;;;;;4140262;28;20046;-70
2021/03/26 07:13:00;;;;;;;40.92;24.00;;;8.90;99.90;;;;;;4134625;28;20598;-70
2021/03/26 07:15:13;;;;;;;38.85;23.35;;;8.90;99.90;;;;;;4138040;28;20034;-70
2021/03/26 07:17:41;;;;;;;36.42;21.98;;;9.00;99.90;;;;;;4122242;28;20038;-69
2021/03/26 07:20:25;;;;;;;40.83;23.52;;;9.00;99.90;;;;;;4137257;28;20034;-69
2021/03/26 07:22:31;;;;;;;;;;;9.10;99.90;;;;;;4118575;28;20039;-69
2021/03/26 07:24:55;;;;;;;35.88;21.55;;;9.20;99.90;;;;;;4141418;28;19928;-69
2021/03/26 07:26:56;;;;;;;35.13;21.65;;;9.30;99.90;;;;;;4133660;28;20379;-69
2021/03/26 07:29:00;;;;;;;41.25;23.08;;;9.40;99.90;;;;;;4141655;28;20049;-69
2021/03/26 07:31:38;;;;;;;36.50;22.23;;;9.50;99.90;;;;;;4141655;28;20050;-69
2021/03/26 07:33:53;;;;;;;36.17;20.52;;;9.50;99.90;;;;;;4123658;28;20049;-69
2021/03/26 07:36:24;;;;;;;33.45;20.63;;;9.60;99.90;;;;;;4125105;28;20121;-69
2021/03/26 07:38:51;;;;;;;45.40;21.25;;;9.70;99.90;;;;;;4137686;28;20555;-69
2021/03/26 07:41:12;;;;;;;36.65;21.92;;;9.80;99.90;;;;;;4125444;28;20515;-69
2021/03/26 07:43:46;;;;;;;34.13;19.70;;;9.90;99.90;;;;;;4123339;28;20121;-69
2021/03/26 07:46:19;;;;;;;33.28;20.17;;;10.00;99.90;;;;;;4133487;28;20509;-70
2021/03/26 07:48:39;;;;;;;31.33;19.33;;;10.10;99.90;;;;;;4135941;28;20038;-69
2021/03/26 07:50:49;;;;;;;32.30;19.67;;;10.10;99.90;;;;;;4130880;28;20173;-69
2021/03/26 07:53:12;;;;;;;30.40;19.48;;;10.20;99.90;;;;;;4134338;28;20096;-69
2021/03/26 07:55:47;;;;;;;32.17;18.92;;;10.30;99.90;;;;;;4138854;28;20034;-69
2021/03/26 07:58:24;;;;;;;33.75;20.17;;;10.50;99.90;;;;;;4136452;28;20045;-70
2021/03/26 08:00:40;;;;;;;33.70;19.58;;;10.60;99.90;;;;;;4133822;28;20481;-70
2021/03/26 08:03:08;;;;;;;35.90;20.17;;;10.70;99.90;;;;;;4133999;28;20512;-70
2021/03/26 08:05:42;;;;;;;28.60;18.05;;;10.90;99.90;;;;;;4122984;28;20038;-70
2021/03/26 08:07:51;;;;;;;37.17;19.63;;;11.00;99.90;;;;;;4106589;28;20073;-70
2021/03/26 08:10:16;;;;;;;28.95;19.00;;;11.10;99.90;;;;;;4104967;28;20039;-70
2021/03/26 08:12:32;;;;;;;32.42;19.67;;;11.20;99.90;;;;;;4139849;28;20096;-70
2021/03/26 08:14:53;;;;;;;26.67;16.83;;;11.30;99.90;;;;;;4121181;28;20101;-70
2021/03/26 08:17:00;;;;;;;26.73;18.23;;;11.40;99.90;;;;;;4135003;28;20493;-70
2021/03/26 08:19:17;;;;;;;29.80;18.88;;;11.50;99.90;;;;;;4134289;28;20030;-70
2021/03/26 08:21:24;;;;;;;29.80;18.42;;;11.60;99.90;;;;;;4114796;28;20023;-73
2021/03/26 08:23:34;;;;;;;27.48;17.77;;;11.70;99.90;;;;;;4133417;28;20422;-70
2021/03/26 08:25:57;;;;;;;27.67;18.00;;;11.80;99.90;;;;;;4132554;28;20062;-70
2021/03/26 08:28:16;;;;;;;33.60;18.15;;;11.90;99.90;;;;;;4135447;28;20050;-70
2021/03/26 08:30:35;;;;;;;27.98;17.98;;;12.00;99.90;;;;;;4118652;28;20043;-70
2021/03/26 08:32:57;;;;;;;28.85;17.88;;;12.10;99.90;;;;;;4114389;28;20122;-70
2021/03/26 08:35:24;;;;;;;30.60;19.23;;;12.20;99.90;;;;;;4134844;28;20039;-70
2021/03/26 08:37:27;;;;;;;31.15;17.80;;;12.40;99.90;;;;;;4132450;28;20042;-70
2021/03/26 08:39:39;;;;;;;27.25;18.30;;;12.50;99.90;;;;;;4133553;28;20050;-70
2021/03/26 08:41:51;;;;;;;31.60;18.60;;;12.60;99.90;;;;;;4115737;28;20463;-70
2021/03/26 08:43:55;;;;;;;26.27;17.52;;;12.70;99.90;;;;;;4116212;28;20290;-69
2021/03/26 08:46:20;;;;;;;31.80;17.83;;;12.80;99.90;;;;;;4133912;28;20030;-69
2021/03/26 08:48:42;;;;;;;27.60;17.33;;;12.90;99.90;;;;;;4115525;28;20128;-69
2021/03/26 08:51:09;;;;;;;22.63;15.50;;;13.00;99.90;;;;;;4138009;28;20061;-71
2021/03/26 08:53:54;;;;;;;23.30;15.10;;;13.10;99.90;;;;;;4132930;28;20122;-70
2021/03/26 08:56:19;;;;;;;31.02;16.83;;;13.30;99.90;;;;;;4120324;28;20041;-69
2021/03/26 08:58:39;;;;;;;24.75;15.38;;;13.40;99.90;;;;;;4127872;28;20379;-70
2021/03/26 09:01:31;;;;;;;23.65;14.77;;;13.50;99.90;;;;;;4134541;28;20514;-71
2021/03/26 09:03:56;;;;;;;22.42;13.88;;;13.60;99.90;;;;;;4096290;28;20037;-68
2021/03/26 09:06:28;;;;;;;21.25;13.27;;;13.80;99.90;;;;;;4136511;28;20397;-68
2021/03/26 09:08:47;;;;;;;20.45;13.65;;;13.90;99.90;;;;;;4136865;28;20053;-69
2021/03/26 09:11:09;;;;;;;20.40;12.85;;;14.10;99.90;;;;;;4139627;28;20533;-69
2021/03/26 09:13:45;;;;;;;19.95;12.45;;;14.10;99.90;;;;;;4137837;28;20414;-69
2021/03/26 09:16:06;;;;;;;19.65;12.35;;;14.30;99.90;;;;;;4132336;28;20639;-69
2021/03/26 09:18:19;;;;;;;20.08;11.93;;;14.30;99.90;;;;;;4138493;28;20045;-69
2021/03/26 09:20:30;;;;;;;21.40;11.65;;;14.40;99.90;;;;;;4140587;28;20035;-69
2021/03/26 09:22:58;;;;;;;21.92;12.13;;;14.50;99.90;;;;;;4138068;28;20042;-69
2021/03/26 09:25:35;;;;;;;18.23;11.65;;;14.60;99.90;;;;;;4138543;28;20500;-68
2021/03/26 09:28:19;;;;;;;19.15;11.82;;;14.60;99.90;;;;;;4136101;28;20478;-68
2021/03/26 09:30:37;;;;;;;18.85;11.10;;;14.70;99.90;;;;;;4059824;29;20036;-69
2021/03/26 09:33:08;;;;;;;18.65;10.98;;;14.70;99.90;;;;;;4110478;28;20026;-69
2021/03/26 09:35:21;;;;;;;18.58;11.82;;;14.80;99.90;;;;;;4136417;28;20628;-68
2021/03/26 09:37:33;;;;;;;20.25;10.95;;;14.80;99.90;;;;;;4142554;28;20037;-69
2021/03/26 09:39:36;;;;;;;18.40;10.48;;;14.90;99.90;;;;;;4142791;28;20030;-69
2021/03/26 09:41:51;;;;;;;;;;;14.90;99.90;;;;;;4140204;28;20058;-69
2021/03/26 09:44:05;;;;;;;17.52;9.10;;;15.00;99.90;;;;;;4138120;28;19923;-69
2021/03/26 09:46:11;;;;;;;12.93;8.77;;;15.00;99.90;;;;;;4139470;28;20414;-69
2021/03/26 09:48:30;;;;;;;15.82;9.68;;;15.10;99.90;;;;;;4136684;28;20038;-68
2021/03/26 09:50:44;;;;;;;14.77;8.32;;;15.20;99.90;;;;;;4134318;28;20030;-69
2021/03/26 09:52:46;;;;;;;12.55;7.90;;;15.30;99.90;;;;;;4124440;28;20170;-69
2021/03/26 09:54:51;;;;;;;10.65;7.10;;;15.40;99.90;;;;;;4124202;28;20565;-69
2021/03/26 09:57:13;;;;;;;13.98;8.23;;;15.40;99.90;;;;;;4141864;28;20034;-69
2021/03/26 09:59:45;;;;;;;17.45;7.68;;;15.50;99.90;;;;;;4138490;28;20033;-66
2021/03/26 10:02:04;;;;;;;11.95;7.13;;;15.50;99.90;;;;;;4137942;28;20038;-69
2021/03/26 10:04:15;;;;;;;14.85;7.70;;;15.50;99.90;;;;;;4144022;28;20125;-69
2021/03/26 10:06:37;;;;;;;13.32;6.88;;;15.50;99.90;;;;;;4141558;28;20026;-69
2021/03/26 10:10:50;;;;;;;9.00;4.22;;;15.80;99.90;;;;;;4142904;28;20089;-66
2021/03/26 10:12:55;;;;;;;11.13;4.30;;;15.60;99.90;;;;;;4128543;28;20061;-66
2021/03/26 10:15:03;;;;;;;11.30;5.18;;;15.50;99.90;;;;;;4141811;28;20037;-66
2021/03/26 10:17:28;;;;;;;9.02;4.47;;;15.60;99.90;;;;;;4140439;28;20038;-66
2021/03/26 10:19:37;;;;;;;6.28;3.80;;;15.70;99.90;;;;;;4140303;28;20536;-66
2021/03/26 10:21:48;;;;;;;8.85;4.47;;;15.80;99.90;;;;;;4141335;28;20034;-66
2021/03/26 10:24:04;;;;;;;10.65;4.85;;;15.90;99.90;;;;;;4136376;28;20030;-66
2021/03/26 10:26:19;;;;;;;8.57;4.07;;;16.00;99.90;;;;;;4136908;28;20133;-66
2021/03/26 10:28:49;;;;;;;6.75;3.95;;;16.00;99.90;;;;;;4140214;28;20069;-66
2021/03/26 10:31:13;;;;;;;8.73;4.25;;;16.20;99.90;;;;;;4139601;28;20037;-66
2021/03/26 10:33:16;;;;;;;10.20;4.70;;;16.10;98.80;;;;;;4137728;28;20616;-66
2021/03/26 10:35:26;;;;;;;10.13;4.85;;;16.10;99.60;;;;;;4136437;28;20041;-66
2021/03/26 10:38:16;;;;;;;8.52;4.03;;;16.20;99.00;;;;;;4129244;28;20407;-69
2021/03/26 10:40:35;;;;;;;8.85;3.90;;;16.20;98.00;;;;;;4119975;28;20035;-69
2021/03/26 10:43:12;;;;;;;13.48;4.22;;;16.20;99.70;;;;;;4124698;28;20419;-69
2021/03/26 10:45:36;;;;;;;7.57;3.78;;;16.20;95.80;;;;;;4123061;28;20589;-69
2021/03/26 10:47:39;;;;;;;8.18;3.50;;;16.10;97.30;;;;;;4118299;28;20111;-66
2021/03/26 10:49:59;;;;;;;10.88;3.40;;;16.10;97.90;;;;;;4127710;28;20104;-66
2021/03/26 10:52:09;;;;;;;16.88;4.05;;;16.20;95.30;;;;;;4119100;28;20628;-66
2021/03/26 10:54:34;;;;;;;7.82;3.30;;;16.00;94.30;;;;;;4124182;28;20062;-66
2021/03/26 10:56:47;;;;;;;8.38;3.70;;;16.00;95.70;;;;;;4115465;28;20094;-66
2021/03/26 10:59:00;;;;;;;9.65;4.25;;;15.80;94.60;;;;;;4115597;28;20051;-66
2021/03/26 11:01:01;;;;;;;;;;;15.60;92.60;;;;;;4121120;28;20054;-66
2021/03/26 11:03:28;;;;;;;7.90;3.53;;;15.60;95.10;;;;;;4132130;28;19910;-66
2021/03/26 11:05:32;;;;;;;7.07;2.90;;;15.60;95.40;;;;;;4117973;28;20113;-66
2021/03/26 11:08:01;;;;;;;7.68;3.35;;;15.60;95.90;;;;;;4124290;28;20049;-66
2021/03/26 11:10:04;;;;;;;5.28;3.08;;;15.70;96.10;;;;;;4115432;28;20041;-66
2021/03/26 11:12:24;;;;;;;7.53;3.28;;;15.90;96.40;;;;;;4140124;28;20104;-66
2021/03/26 11:14:40;;;;;;;6.50;2.90;;;15.90;94.90;;;;;;4134243;28;20033;-66
2021/03/26 11:17:18;;;;;;;12.43;3.83;;;15.90;93.40;;;;;;4130215;28;20197;-66
2021/03/26 11:19:40;;;;;;;7.85;3.60;;;15.90;92.90;;;;;;4113847;28;20027;-66
2021/03/26 11:21:47;;;;;;;7.63;3.22;;;15.90;93.80;;;;;;4134913;28;20071;-66
2021/03/26 11:24:05;;;;;;;7.47;3.10;;;16.10;96.00;;;;;;4141357;28;20040;-66
2021/03/26 11:26:05;;;;;;;8.55;3.55;;;16.20;93.20;;;;;;4121003;28;20490;-66
2021/03/26 11:28:24;;;;;;;9.57;3.33;;;16.20;92.20;;;;;;4137577;28;20065;-66
2021/03/26 11:30:33;;;;;;;9.02;4.05;;;16.20;92.90;;;;;;4141310;28;20034;-66
2021/03/26 11:32:38;;;;;;;7.05;3.42;;;16.20;93.10;;;;;;4138743;28;20045;-66
2021/03/26 11:34:57;;;;;;;10.32;4.13;;;16.30;93.50;;;;;;4136032;28;20030;-66
2021/03/26 11:37:14;;;;;;;10.02;3.90;;;16.30;93.10;;;;;;4137095;28;20080;-66
2021/03/26 11:39:29;;;;;;;12.93;4.32;;;16.30;93.10;;;;;;4137803;28;20031;-66
2021/03/26 11:41:39;;;;;;;9.05;4.10;;;16.30;93.50;;;;;;4127198;28;20722;-66
2021/03/26 11:43:43;;;;;;;7.13;3.70;;;16.30;93.00;;;;;;4138383;28;20053;-66
2021/03/26 11:45:46;;;;;;;8.15;3.70;;;16.30;92.50;;;;;;4138428;28;20038;-66
2021/03/26 11:47:58;;;;;;;11.10;4.30;;;16.40;92.90;;;;;;4138649;28;20113;-66
2021/03/26 11:50:15;;;;;;;8.65;4.18;;;16.40;93.90;;;;;;4136873;28;20050;-66